sensor_id;sensor_type;location;lat;lon;timestamp;pressure;altitude;pressure_sealevel;temperature;humidity
27980;BME280;15315;50.836;4.430;2023-05-23T00:01:53;101462.66;;;17.60;100.00
27980;BME280;15315;50.836;4.430;2023-05-23T00:11:54;101465.22;;;16.68;100.00
27980;BME280;15315;50.836;4.430;2023-05-23T00:21:54;101449.91;;;17.19;100.00
27980;BME280;15315;50.836;4.430;2023-05-23T00:31:59;101480.09;;;17.48;100.00
27980;BME280;15315;50.836;4.430;2023-05-23T00:42:03;101481.22;;;17.25;100.00
27980;BME280;15315;50.836;4.430;2023-05-23T00:52:04;101482.47;;;17.62;100.00
27980;BME280;15315;50.836;4.430;2023-05-23T01:02:04;101492.84;;;16.95;100.00
27980;BME280;15315;50.836;4.430;2023-05-23T01:12:28;101497.22;;;17.80;100.00
27980;BME280;15315;50.836;4.430;2023-05-23T01:22:53;101499.41;;;16.93;100.00
27980;BME280;15315;50.836;4.430;2023-05-23T01:33:02;101509.75;;;16.78;100.00
27980;BME280;15315;50.836;4.430;2023-05-23T01:43:03;101514.41;;;17.71;100.00
27980;BME280;15315;50.836;4.430;2023-05-23T01:53:04;101522.44;;;17.31;100.00
27980;BME280;15315;50.836;4.430;2023-05-23T02:03:05;101521.09;;;17.47;100.00
27980;BME280;15315;50.836;4.430;2023-05-23T02:13:06;101514.97;;;17.75;100.00
27980;BME280;15315;50.836;4.430;2023-05-23T02:23:06;101494.16;;;18.25;100.00
27980;BME280;15315;50.836;4.430;2023-05-23T02:33:07;101509.41;;;17.76;100.00
27980;BME280;15315;50.836;4.430;2023-05-23T02:43:07;101520.63;;;18.04;100.00
27980;BME280;15315;50.836;4.430;2023-05-23T02:53:07;101531.94;;;17.37;100.00
27980;BME280;15315;50.836;4.430;2023-05-23T03:03:08;101525.59;;;17.16;100.00
27980;BME280;15315;50.836;4.430;2023-05-23T03:13:08;101539.22;;;16.62;100.00
27980;BME280;15315;50.836;4.430;2023-05-23T03:23:08;101543.69;;;15.74;100.00
27980;BME280;15315;50.836;4.430;2023-05-23T03:33:09;101559.41;;;16.70;100.00
27980;BME280;15315;50.836;4.430;2023-05-23T03:43:10;101564.88;;;15.58;100.00
27980;BME280;15315;50.836;4.430;2023-05-23T03:53:11;101567.34;;;16.18;100.00
27980;BME280;15315;50.836;4.430;2023-05-23T04:03:11;101585.09;;;15.19;100.00
27980;BME280;15315;50.836;4.430;2023-05-23T04:13:14;101585.41;;;14.67;100.00
27980;BME280;15315;50.836;4.430;2023-05-23T04:23:14;101602.97;;;15.11;100.00
27980;BME280;15315;50.836;4.430;2023-05-23T04:33:16;101585.91;;;16.57;100.00
27980;BME280;15315;50.836;4.430;2023-05-23T04:43:17;101582.50;;;17.09;100.00
27980;BME280;15315;50.836;4.430;2023-05-23T04:53:19;101594.41;;;16.86;100.00
27980;BME280;15315;50.836;4.430;2023-05-23T05:03:19;101596.34;;;17.17;100.00
27980;BME280;15315;50.836;4.430;2023-05-23T05:13:19;101605.00;;;17.00;100.00
27980;BME280;15315;50.836;4.430;2023-05-23T05:23:23;101614.22;;;17.10;100.00
27980;BME280;15315;50.836;4.430;2023-05-23T05:33:24;101620.06;;;16.50;100.00
27980;BME280;15315;50.836;4.430;2023-05-23T05:43:24;101628.94;;;17.08;100.00
27980;BME280;15315;50.836;4.430;2023-05-23T05:53:25;101632.06;;;15.80;100.00
27980;BME280;15315;50.836;4.430;2023-05-23T06:03:26;101652.22;;;16.79;100.00
27980;BME280;15315;50.836;4.430;2023-05-23T06:13:26;101659.22;;;16.15;100.00
27980;BME280;15315;50.836;4.430;2023-05-23T06:23:27;101656.91;;;15.86;100.00
27980;BME280;15315;50.836;4.430;2023-05-23T06:33:27;101668.78;;;15.14;100.00
27980;BME280;15315;50.836;4.430;2023-05-23T06:43:28;101679.34;;;15.66;100.00
27980;BME280;15315;50.836;4.430;2023-05-23T06:53:28;101690.09;;;16.48;100.00
27980;BME280;15315;50.836;4.430;2023-05-23T07:03:29;101691.56;;;16.52;100.00
27980;BME280;15315;50.836;4.430;2023-05-23T07:13:30;101704.47;;;16.73;100.00
27980;BME280;15315;50.836;4.430;2023-05-23T07:23:33;101710.34;;;17.44;100.00
27980;BME280;15315;50.836;4.430;2023-05-23T07:33:33;101711.63;;;16.40;100.00
27980;BME280;15315;50.836;4.430;2023-05-23T07:43:34;101714.75;;;17.02;100.00
27980;BME280;15315;50.836;4.430;2023-05-23T07:53:35;101729.69;;;16.41;100.00
27980;BME280;15315;50.836;4.430;2023-05-23T08:03:38;101730.41;;;16.08;100.00
27980;BME280;15315;50.836;4.430;2023-05-23T08:13:39;101734.97;;;17.65;100.00
27980;BME280;15315;50.836;4.430;2023-05-23T08:23:40;101747.94;;;17.41;100.00
27980;BME280;15315;50.836;4.430;2023-05-23T08:33:40;101739.00;;;16.83;100.00
27980;BME280;15315;50.836;4.430;2023-05-23T08:43:40;101737.00;;;17.95;100.00
27980;BME280;15315;50.836;4.430;2023-05-23T08:53:41;101765.09;;;18.06;91.84
27980;BME280;15315;50.836;4.430;2023-05-23T09:03:52;101759.97;;;16.37;98.00
27980;BME280;15315;50.836;4.430;2023-05-23T09:13:53;101759.44;;;17.44;92.74
27980;BME280;15315;50.836;4.430;2023-05-23T09:23:54;101760.22;;;17.78;93.72
27980;BME280;15315;50.836;4.430;2023-05-23T09:33:55;101762.59;;;18.14;90.76
27980;BME280;15315;50.836;4.430;2023-05-23T09:43:57;101780.06;;;17.91;91.43
27980;BME280;15315;50.836;4.430;2023-05-23T09:53:58;101785.31;;;17.50;94.42
27980;BME280;15315;50.836;4.430;2023-05-23T10:03:58;101777.94;;;18.88;88.97
27980;BME280;15315;50.836;4.430;2023-05-23T10:14:01;101788.69;;;18.07;99.06
27980;BME280;15315;50.836;4.430;2023-05-23T10:24:03;101789.53;;;19.41;84.44
27980;BME280;15315;50.836;4.430;2023-05-23T10:44:27;101780.44;;;20.67;75.76
27980;BME280;15315;50.836;4.430;2023-05-23T10:54:34;101771.66;;;20.06;75.73
27980;BME280;15315;50.836;4.430;2023-05-23T11:04:35;101778.88;;;20.07;72.70
27980;BME280;15315;50.836;4.430;2023-05-23T11:24:49;101775.00;;;20.38;69.96
27980;BME280;15315;50.836;4.430;2023-05-23T11:34:50;101778.63;;;20.29;73.22
27980;BME280;15315;50.836;4.430;2023-05-23T11:44:51;101775.28;;;22.09;66.95
27980;BME280;15315;50.836;4.430;2023-05-23T11:54:52;101785.97;;;20.28;69.16
27980;BME280;15315;50.836;4.430;2023-05-23T12:04:52;101774.38;;;19.87;70.01
27980;BME280;15315;50.836;4.430;2023-05-23T12:14:55;101784.09;;;21.41;62.33
27980;BME280;15315;50.836;4.430;2023-05-23T12:24:56;101781.50;;;20.18;64.01
27980;BME280;15315;50.836;4.430;2023-05-23T12:34:56;101780.94;;;21.36;60.60
27980;BME280;15315;50.836;4.430;2023-05-23T12:44:57;101768.81;;;21.11;59.37
27980;BME280;15315;50.836;4.430;2023-05-23T12:54:57;101781.94;;;20.42;58.71
27980;BME280;15315;50.836;4.430;2023-05-23T13:04:58;101782.03;;;20.79;58.74
27980;BME280;15315;50.836;4.430;2023-05-23T13:14:58;101776.38;;;21.99;55.59
27980;BME280;15315;50.836;4.430;2023-05-23T13:24:59;101771.97;;;19.93;58.71
27980;BME280;15315;50.836;4.430;2023-05-23T13:34:59;101765.94;;;21.85;54.72
27980;BME280;15315;50.836;4.430;2023-05-23T13:44:59;101775.00;;;20.38;57.11
27980;BME280;15315;50.836;4.430;2023-05-23T13:55:00;101769.66;;;21.48;56.54
27980;BME280;15315;50.836;4.430;2023-05-23T14:05:02;101771.13;;;21.33;56.55
27980;BME280;15315;50.836;4.430;2023-05-23T14:15:02;101763.97;;;21.23;55.97
27980;BME280;15315;50.836;4.430;2023-05-23T14:25:03;101753.34;;;21.37;56.26
27980;BME280;15315;50.836;4.430;2023-05-23T14:35:05;101760.88;;;21.08;55.50
27980;BME280;15315;50.836;4.430;2023-05-23T14:45:06;101763.56;;;20.81;57.54
27980;BME280;15315;50.836;4.430;2023-05-23T14:55:07;101746.25;;;21.89;55.68
27980;BME280;15315;50.836;4.430;2023-05-23T15:05:08;101731.88;;;20.50;57.64
27980;BME280;15315;50.836;4.430;2023-05-23T15:15:08;101740.84;;;20.98;55.91
27980;BME280;15315;50.836;4.430;2023-05-23T15:25:09;101738.56;;;20.93;55.08
27980;BME280;15315;50.836;4.430;2023-05-23T15:35:10;101745.72;;;20.58;54.40
27980;BME280;15315;50.836;4.430;2023-05-23T15:45:11;101754.25;;;21.83;53.12
27980;BME280;15315;50.836;4.430;2023-05-23T15:55:11;101748.81;;;21.73;53.43
27980;BME280;15315;50.836;4.430;2023-05-23T16:05:11;101752.88;;;23.09;49.94
27980;BME280;15315;50.836;4.430;2023-05-23T16:15:12;101753.63;;;24.35;46.73
27980;BME280;15315;50.836;4.430;2023-05-23T16:25:12;101752.56;;;25.39;43.69
27980;BME280;15315;50.836;4.430;2023-05-23T16:35:12;101749.00;;;25.31;42.93
27980;BME280;15315;50.836;4.430;2023-05-23T16:45:13;101745.06;;;25.09;42.48
27980;BME280;15315;50.836;4.430;2023-05-23T16:55:13;101751.72;;;24.67;41.55
27980;BME280;15315;50.836;4.430;2023-05-23T17:05:14;101746.03;;;26.02;40.76
27980;BME280;15315;50.836;4.430;2023-05-23T17:15:15;101761.03;;;24.42;43.54
27980;BME280;15315;50.836;4.430;2023-05-23T17:25:15;101776.97;;;23.82;43.98
27980;BME280;15315;50.836;4.430;2023-05-23T17:35:15;101754.94;;;23.07;45.56
27980;BME280;15315;50.836;4.430;2023-05-23T17:45:16;101754.72;;;23.26;44.95
27980;BME280;15315;50.836;4.430;2023-05-23T17:55:16;101781.13;;;21.25;47.42
27980;BME280;15315;50.836;4.430;2023-05-23T18:05:17;101785.34;;;20.73;48.45
27980;BME280;15315;50.836;4.430;2023-05-23T18:15:19;101787.44;;;18.52;54.76
27980;BME280;15315;50.836;4.430;2023-05-23T18:25:20;101796.31;;;18.13;58.23
27980;BME280;15315;50.836;4.430;2023-05-23T18:35:26;101807.41;;;17.13;62.61
27980;BME280;15315;50.836;4.430;2023-05-23T18:45:26;101805.63;;;17.68;62.24
27980;BME280;15315;50.836;4.430;2023-05-23T18:55:27;101813.47;;;17.61;62.86
27980;BME280;15315;50.836;4.430;2023-05-23T19:05:27;101832.53;;;17.06;64.75
27980;BME280;15315;50.836;4.430;2023-05-23T19:15:28;101846.19;;;17.17;64.19
27980;BME280;15315;50.836;4.430;2023-05-23T19:25:29;101857.69;;;16.63;65.87
27980;BME280;15315;50.836;4.430;2023-05-23T19:35:29;101851.31;;;16.87;65.70
27980;BME280;15315;50.836;4.430;2023-05-23T19:45:30;101859.06;;;16.34;67.53
27980;BME280;15315;50.836;4.430;2023-05-23T19:55:31;101867.91;;;16.49;69.06
27980;BME280;15315;50.836;4.430;2023-05-23T20:05:32;101874.34;;;16.00;72.44
27980;BME280;15315;50.836;4.430;2023-05-23T20:15:32;101886.88;;;16.96;68.50
27980;BME280;15315;50.836;4.430;2023-05-23T20:25:32;101900.72;;;17.28;67.41
27980;BME280;15315;50.836;4.430;2023-05-23T20:35:33;101904.50;;;16.68;69.93
27980;BME280;15315;50.836;4.430;2023-05-23T20:45:33;101924.84;;;15.92;71.47
27980;BME280;15315;50.836;4.430;2023-05-23T20:55:34;101933.19;;;16.38;69.91
27980;BME280;15315;50.836;4.430;2023-05-23T21:05:34;101939.63;;;15.88;72.23
27980;BME280;15315;50.836;4.430;2023-05-23T21:15:35;101960.00;;;15.82;70.72
27980;BME280;15315;50.836;4.430;2023-05-23T21:25:35;101942.16;;;17.09;66.45
27980;BME280;15315;50.836;4.430;2023-05-23T21:35:36;101937.41;;;15.69;71.29
27980;BME280;15315;50.836;4.430;2023-05-23T21:45:37;101944.41;;;15.97;68.96
27980;BME280;15315;50.836;4.430;2023-05-23T21:55:37;101943.44;;;16.22;68.50
27980;BME280;15315;50.836;4.430;2023-05-23T22:05:37;101933.88;;;16.52;67.68
27980;BME280;15315;50.836;4.430;2023-05-23T22:15:38;101945.47;;;16.43;67.36
27980;BME280;15315;50.836;4.430;2023-05-23T22:25:38;101947.25;;;16.32;67.76
27980;BME280;15315;50.836;4.430;2023-05-23T22:35:40;101953.84;;;16.04;69.05
27980;BME280;15315;50.836;4.430;2023-05-23T22:45:40;101957.88;;;15.98;69.50
27980;BME280;15315;50.836;4.430;2023-05-23T22:55:41;101960.28;;;16.03;69.34
27980;BME280;15315;50.836;4.430;2023-05-23T23:05:41;101940.97;;;15.44;71.81
27980;BME280;15315;50.836;4.430;2023-05-23T23:15:43;101942.06;;;15.42;72.36
27980;BME280;15315;50.836;4.430;2023-05-23T23:25:44;101945.22;;;15.61;71.32
27980;BME280;15315;50.836;4.430;2023-05-23T23:35:49;101943.91;;;15.67;71.59
27980;BME280;15315;50.836;4.430;2023-05-23T23:45:50;101939.78;;;15.36;72.88
27980;BME280;15315;50.836;4.430;2023-05-23T23:55:51;101937.06;;;15.61;71.60
